sensor_id;sensor_type;location;lat;lon;timestamp;P1;durP1;ratioP1;P2;durP2;ratioP2
16177;SDS011;8195;51.220;9.746;2023-01-01T12:45:43;4.10;;;3.70;;
16177;SDS011;8195;51.220;9.746;2023-01-01T12:56:10;5.33;;;3.97;;
16177;SDS011;8195;51.220;9.746;2023-01-01T13:06:21;4.87;;;3.60;;
16177;SDS011;8195;51.220;9.746;2023-01-01T13:16:36;6.17;;;3.93;;
16177;SDS011;8195;51.220;9.746;2023-01-01T13:26:39;4.47;;;3.30;;
16177;SDS011;8195;51.220;9.746;2023-01-01T13:36:40;4.40;;;3.70;;
16177;SDS011;8195;51.220;9.746;2023-01-01T14:17:29;5.43;;;3.27;;
16177;SDS011;8195;51.220;9.746;2023-01-01T14:27:30;6.27;;;3.80;;
16177;SDS011;8195;51.220;9.746;2023-01-01T14:37:31;4.90;;;3.03;;
16177;SDS011;8195;51.220;9.746;2023-01-01T14:47:32;3.97;;;3.10;;
16177;SDS011;8195;51.220;9.746;2023-01-01T14:57:34;6.13;;;4.03;;
16177;SDS011;8195;51.220;9.746;2023-01-01T15:07:36;4.83;;;4.33;;
16177;SDS011;8195;51.220;9.746;2023-01-01T15:17:44;4.60;;;4.10;;
16177;SDS011;8195;51.220;9.746;2023-01-01T15:38:39;6.67;;;4.23;;
16177;SDS011;8195;51.220;9.746;2023-01-01T15:49:23;5.20;;;4.10;;
16177;SDS011;8195;51.220;9.746;2023-01-01T15:59:53;4.90;;;4.50;;
16177;SDS011;8195;51.220;9.746;2023-01-01T16:10:42;5.13;;;3.50;;
16177;SDS011;8195;51.220;9.746;2023-01-01T16:21:04;5.87;;;4.73;;
16177;SDS011;8195;51.220;9.746;2023-01-01T16:31:40;6.90;;;3.93;;
16177;SDS011;8195;51.220;9.746;2023-01-01T16:42:17;6.27;;;4.30;;
16177;SDS011;8195;51.220;9.746;2023-01-01T16:52:39;5.77;;;4.47;;
16177;SDS011;8195;51.220;9.746;2023-01-01T17:02:55;6.40;;;5.40;;
16177;SDS011;8195;51.220;9.746;2023-01-01T17:13:24;7.70;;;4.80;;
16177;SDS011;8195;51.220;9.746;2023-01-01T17:23:35;6.20;;;4.50;;
16177;SDS011;8195;51.220;9.746;2023-01-01T17:33:51;6.73;;;4.77;;
16177;SDS011;8195;51.220;9.746;2023-01-01T17:44:31;6.37;;;4.87;;
16177;SDS011;8195;51.220;9.746;2023-01-01T17:54:41;7.27;;;4.57;;
16177;SDS011;8195;51.220;9.746;2023-01-01T18:04:58;6.77;;;4.97;;
16177;SDS011;8195;51.220;9.746;2023-01-01T18:15:02;9.40;;;6.10;;
16177;SDS011;8195;51.220;9.746;2023-01-01T18:25:10;7.43;;;5.53;;
16177;SDS011;8195;51.220;9.746;2023-01-01T18:35:43;9.13;;;6.10;;
16177;SDS011;8195;51.220;9.746;2023-01-01T18:46:00;7.80;;;5.80;;
16177;SDS011;8195;51.220;9.746;2023-01-01T18:56:21;7.83;;;6.00;;
16177;SDS011;8195;51.220;9.746;2023-01-01T19:06:31;9.83;;;5.80;;
16177;SDS011;8195;51.220;9.746;2023-01-01T19:16:55;10.03;;;5.70;;
16177;SDS011;8195;51.220;9.746;2023-01-01T19:27:05;6.87;;;6.00;;
16177;SDS011;8195;51.220;9.746;2023-01-01T19:37:24;7.27;;;5.57;;
16177;SDS011;8195;51.220;9.746;2023-01-01T19:47:25;8.83;;;5.80;;
16177;SDS011;8195;51.220;9.746;2023-01-01T19:57:42;7.60;;;6.13;;
16177;SDS011;8195;51.220;9.746;2023-01-01T20:08:07;7.47;;;5.93;;
16177;SDS011;8195;51.220;9.746;2023-01-01T20:18:23;8.67;;;6.10;;
16177;SDS011;8195;51.220;9.746;2023-01-01T20:28:41;10.00;;;5.80;;
16177;SDS011;8195;51.220;9.746;2023-01-01T20:38:48;7.13;;;5.90;;
16177;SDS011;8195;51.220;9.746;2023-01-01T20:48:59;8.97;;;5.27;;
16177;SDS011;8195;51.220;9.746;2023-01-01T20:59:11;7.27;;;5.57;;
16177;SDS011;8195;51.220;9.746;2023-01-01T21:09:27;9.60;;;5.40;;
16177;SDS011;8195;51.220;9.746;2023-01-01T21:19:38;7.73;;;5.47;;
16177;SDS011;8195;51.220;9.746;2023-01-01T22:01:59;7.23;;;4.83;;
16177;SDS011;8195;51.220;9.746;2023-01-01T22:12:23;7.73;;;4.40;;
16177;SDS011;8195;51.220;9.746;2023-01-01T22:22:34;7.60;;;4.50;;
16177;SDS011;8195;51.220;9.746;2023-01-01T22:32:43;5.20;;;4.20;;
16177;SDS011;8195;51.220;9.746;2023-01-01T22:42:53;6.53;;;4.47;;
16177;SDS011;8195;51.220;9.746;2023-01-01T22:52:58;5.13;;;3.97;;
16177;SDS011;8195;51.220;9.746;2023-01-01T23:03:00;6.13;;;4.20;;
16177;SDS011;8195;51.220;9.746;2023-01-01T23:13:05;8.67;;;4.33;;
16177;SDS011;8195;51.220;9.746;2023-01-01T23:23:09;6.47;;;4.23;;
16177;SDS011;8195;51.220;9.746;2023-01-01T23:33:11;5.07;;;4.17;;
16177;SDS011;8195;51.220;9.746;2023-01-01T23:43:14;5.77;;;4.50;;
16177;SDS011;8195;51.220;9.746;2023-01-01T23:53:18;5.23;;;3.83;;
